createdAt,value
2022-09-22T00:00:58.284Z,4.23
2022-09-22T00:03:00.080Z,4.19
2022-09-22T00:05:01.211Z,4.24
2022-09-22T00:07:02.418Z,4.14
2022-09-22T00:09:03.768Z,4.09
2022-09-22T00:11:05.715Z,4
2022-09-22T00:13:07.503Z,4.02
2022-09-22T00:15:08.461Z,4.08
2022-09-22T00:17:10.448Z,4.03
2022-09-22T00:19:12.242Z,3.99
2022-09-22T00:21:14.230Z,3.89
2022-09-22T00:23:15.429Z,3.87
2022-09-22T00:25:16.639Z,3.86
2022-09-22T00:27:18.541Z,3.78
2022-09-22T00:29:19.819Z,3.63
2022-09-22T00:31:21.446Z,3.54
2022-09-22T00:33:23.225Z,3.54
2022-09-22T00:35:24.269Z,3.58
2022-09-22T00:37:25.705Z,3.61
2022-09-22T00:39:27.044Z,3.62
2022-09-22T00:41:28.659Z,3.63
2022-09-22T00:43:30.266Z,3.65
2022-09-22T00:45:31.928Z,3.61
2022-09-22T00:47:33.414Z,3.65
2022-09-22T00:49:35.149Z,3.65
2022-09-22T00:51:36.267Z,3.58
2022-09-22T00:53:37.587Z,3.63
2022-09-22T00:55:38.655Z,3.63
2022-09-22T00:57:40.464Z,3.67
2022-09-22T00:59:42.422Z,3.74
2022-09-22T01:01:44.310Z,3.66
2022-09-22T01:03:45.652Z,3.54
2022-09-22T01:05:47.468Z,3.49
2022-09-22T01:07:49.145Z,3.53
2022-09-22T01:09:50.962Z,3.7
2022-09-22T01:11:52.587Z,3.68
2022-09-22T01:13:53.888Z,3.75
2022-09-22T01:15:55.423Z,3.74
2022-09-22T01:17:56.579Z,3.6
2022-09-22T01:19:58.164Z,3.65
2022-09-22T01:21:59.649Z,3.65
2022-09-22T01:24:01.032Z,3.66
2022-09-22T01:26:02.751Z,3.65
2022-09-22T01:28:04.302Z,3.54
2022-09-22T01:30:05.472Z,3.5
2022-09-22T01:32:06.890Z,3.5
2022-09-22T01:34:08.105Z,3.54
2022-09-22T01:36:09.961Z,3.55
2022-09-22T01:38:11.809Z,3.54
2022-09-22T01:40:13.739Z,3.43
2022-09-22T01:42:14.888Z,3.41
2022-09-22T01:44:15.929Z,3.39
2022-09-22T01:46:17.085Z,3.29
2022-09-22T01:48:18.659Z,3.2
2022-09-22T01:50:19.992Z,3.17
2022-09-22T01:52:21.355Z,3.07
2022-09-22T01:54:22.735Z,3.01
2022-09-22T01:56:24.348Z,2.91
2022-09-22T01:58:25.570Z,2.86
2022-09-22T02:00:26.648Z,2.77
2022-09-22T02:02:28.710Z,2.79
2022-09-22T02:04:29.718Z,2.77
2022-09-22T02:06:31.617Z,2.74
2022-09-22T02:08:33.007Z,2.68
2022-09-22T02:10:34.389Z,2.8
2022-09-22T02:12:36.141Z,2.95
2022-09-22T02:14:37.589Z,2.91
2022-09-22T02:16:39.430Z,2.92
2022-09-22T02:18:40.463Z,2.95
2022-09-22T02:20:41.926Z,2.88
2022-09-22T02:22:43.686Z,2.81
2022-09-22T02:24:45.157Z,2.7
2022-09-22T02:26:46.447Z,2.68
2022-09-22T02:28:47.502Z,2.75
2022-09-22T02:31:04.585Z,2.87
2022-09-22T02:32:50.777Z,2.91
2022-09-22T02:34:52.416Z,2.92
2022-09-22T02:36:53.862Z,2.88
2022-09-22T02:38:55.301Z,2.82
2022-09-22T02:40:56.593Z,2.79
2022-09-22T02:42:58.171Z,2.7
2022-09-22T02:45:00.097Z,2.71
2022-09-22T02:47:01.877Z,2.7
2022-09-22T02:49:03.616Z,2.77
2022-09-22T02:51:05.180Z,2.77
2022-09-22T02:53:06.266Z,2.69
2022-09-22T02:55:07.330Z,2.75
2022-09-22T02:57:09.048Z,2.79
2022-09-22T02:59:11.235Z,2.87
2022-09-22T03:01:12.833Z,3.04
2022-09-22T03:03:14.165Z,3.04
2022-09-22T03:05:15.991Z,3.06
2022-09-22T03:07:17.687Z,3.11
2022-09-22T03:09:19.517Z,3.18
2022-09-22T03:11:21.177Z,3.25
2022-09-22T03:13:23.027Z,3.23
2022-09-22T03:15:27.107Z,3.19
2022-09-22T03:17:26.230Z,3.2
2022-09-22T03:19:28.132Z,3.18
2022-09-22T03:20:12.049Z,3.2
2022-09-22T03:22:13.417Z,3.15
2022-09-22T03:24:15.155Z,3.14
2022-09-22T03:26:17.040Z,3.12
2022-09-22T03:28:18.811Z,3.02
2022-09-22T03:30:20.685Z,3.04
2022-09-22T03:32:21.973Z,3.05
2022-09-22T03:34:23.672Z,3.01
2022-09-22T03:36:25.658Z,2.98
2022-09-22T03:38:27.188Z,2.91
2022-09-22T03:40:28.454Z,2.98
2022-09-22T03:42:29.746Z,2.96
2022-09-22T03:44:31.179Z,2.92
2022-09-22T03:46:32.958Z,2.83
2022-09-22T03:48:34.171Z,2.78
2022-09-22T03:50:35.220Z,2.77
2022-09-22T03:52:36.668Z,2.71
2022-09-22T03:54:38.276Z,2.56
2022-09-22T03:56:40.143Z,2.51
2022-09-22T03:58:41.336Z,2.42
2022-09-22T04:00:42.416Z,2.36
2022-09-22T04:02:43.961Z,2.32
2022-09-22T04:04:45.948Z,2.25
2022-09-22T04:06:47.028Z,2.21
2022-09-22T04:08:48.838Z,2.17
2022-09-22T04:10:49.903Z,2.08
2022-09-22T04:12:51.234Z,2.12
2022-09-22T04:14:53.245Z,2.13
2022-09-22T04:16:54.865Z,2.19
2022-09-22T04:18:56.307Z,2.17
2022-09-22T04:20:57.746Z,2.15
2022-09-22T04:22:59.407Z,2.19
2022-09-22T04:25:01.288Z,2.19
2022-09-22T04:27:18.927Z,2.29
2022-09-22T04:29:04.378Z,2.39
2022-09-22T04:31:05.685Z,2.41
2022-09-22T04:33:06.928Z,2.46
2022-09-22T04:35:08.772Z,2.44
2022-09-22T04:37:10.443Z,2.49
2022-09-22T04:39:11.687Z,2.55
2022-09-22T04:41:13.660Z,2.61
2022-09-22T04:43:14.852Z,2.63
2022-09-22T04:45:16.831Z,2.6
2022-09-22T04:47:18.831Z,2.49
2022-09-22T04:49:20.595Z,2.52
2022-09-22T04:51:21.784Z,2.54
2022-09-22T04:53:23.713Z,2.54
2022-09-22T04:55:24.904Z,2.5
2022-09-22T04:57:26.228Z,2.48
2022-09-22T04:59:27.663Z,2.5
2022-09-22T05:01:29.123Z,2.51
2022-09-22T05:03:30.823Z,2.49
2022-09-22T05:05:32.818Z,2.44
2022-09-22T05:07:34.416Z,2.4
2022-09-22T05:09:35.567Z,2.44
2022-09-22T05:11:37.459Z,2.37
2022-09-22T05:13:38.606Z,2.34
2022-09-22T05:15:40.060Z,2.3
2022-09-22T05:17:41.909Z,2.25
2022-09-22T05:19:43.282Z,2.22
2022-09-22T05:21:44.372Z,2.22
2022-09-22T05:23:45.614Z,2.21
2022-09-22T05:25:47.131Z,2.17
2022-09-22T05:27:48.872Z,2.22
2022-09-22T05:29:50.541Z,2.28
2022-09-22T05:31:52.580Z,2.26
2022-09-22T05:33:54.264Z,2.26
2022-09-22T05:35:56.000Z,2.32
2022-09-22T05:37:57.754Z,2.39
2022-09-22T05:39:59.590Z,2.45
2022-09-22T05:42:01.555Z,2.44
2022-09-22T05:44:02.847Z,2.41
2022-09-22T05:46:04.250Z,2.39
2022-09-22T05:48:05.990Z,2.39
2022-09-22T05:50:07.584Z,2.44
2022-09-22T05:52:09.127Z,2.52
2022-09-22T05:54:10.511Z,2.49
2022-09-22T05:56:11.978Z,2.55
2022-09-22T05:58:13.177Z,2.56
2022-09-22T06:00:14.313Z,2.55
2022-09-22T06:02:25.487Z,2.65
2022-09-22T06:04:16.977Z,2.7
2022-09-22T06:06:18.604Z,2.76
2022-09-22T06:08:20.211Z,2.79
2022-09-22T06:10:22.002Z,2.75
2022-09-22T06:12:23.098Z,2.78
2022-09-22T06:14:24.144Z,2.73
2022-09-22T06:16:25.459Z,2.64
2022-09-22T06:18:27.019Z,2.8
2022-09-22T06:20:29.220Z,2.85
2022-09-22T06:22:31.009Z,2.94
2022-09-22T06:24:32.028Z,2.88
2022-09-22T06:26:33.812Z,2.87
2022-09-22T06:30:36.748Z,2.94
2022-09-22T06:32:37.908Z,3.1
2022-09-22T06:34:39.851Z,3.13
2022-09-22T06:36:41.583Z,3.27
2022-09-22T06:38:43.163Z,3.52
2022-09-22T06:40:45.223Z,3.53
2022-09-22T06:42:46.261Z,3.26
2022-09-22T06:44:47.859Z,3.17
2022-09-22T06:46:49.242Z,3.22
2022-09-22T06:48:50.335Z,3.29
2022-09-22T06:50:52.231Z,3.55
2022-09-22T06:52:53.470Z,3.59
2022-09-22T06:54:54.805Z,3.53
2022-09-22T06:56:56.726Z,3.53
2022-09-22T06:59:09.678Z,3.53
2022-09-22T07:00:59.987Z,3.81
2022-09-22T07:03:01.361Z,3.97
2022-09-22T07:05:02.810Z,3.95
2022-09-22T07:07:03.925Z,3.94
2022-09-22T07:09:05.513Z,4.06
2022-09-22T07:13:08.458Z,3.99
2022-09-22T07:15:09.447Z,3.92
2022-09-22T07:17:10.436Z,3.99
2022-09-22T07:19:11.941Z,4.05
2022-09-22T07:21:13.212Z,3.87
2022-09-22T07:23:14.463Z,3.87
2022-09-22T07:25:16.426Z,4.33
2022-09-22T07:27:18.283Z,4.66
2022-09-22T07:29:19.233Z,5.21
2022-09-22T07:31:22.079Z,4.96
2022-09-22T07:33:21.296Z,5.18
2022-09-22T07:35:22.267Z,5.08
2022-09-22T07:37:23.441Z,5.42
2022-09-22T07:39:25.182Z,4.94
2022-09-22T07:41:26.639Z,5.39
2022-09-22T07:43:27.905Z,5.51
2022-09-22T07:45:29.871Z,5.54
2022-09-22T07:47:31.419Z,5.31
2022-09-22T07:49:32.340Z,5.86
2022-09-22T07:51:34.156Z,5.92
2022-09-22T07:53:35.644Z,6.23
2022-09-22T07:55:37.144Z,5.97
2022-09-22T07:57:38.664Z,6.28
2022-09-22T07:59:40.495Z,6.05
2022-09-22T08:01:42.369Z,6.07
2022-09-22T08:03:45.115Z,6.35
2022-09-22T08:05:46.510Z,6.64
2022-09-22T08:07:47.737Z,6.59
2022-09-22T08:09:48.695Z,6.35
2022-09-22T08:11:49.970Z,6.24
2022-09-22T08:13:51.514Z,6.42
2022-09-22T08:15:52.545Z,7.3
2022-09-22T08:17:53.885Z,7.61
2022-09-22T08:19:55.201Z,8.03
2022-09-22T08:21:56.649Z,8.2
2022-09-22T08:23:57.934Z,8.93
2022-09-22T08:25:59.773Z,9.03
2022-09-22T08:28:01.293Z,8.65
2022-09-22T08:30:02.998Z,8.88
2022-09-22T08:34:05.267Z,8.35
2022-09-22T08:36:06.432Z,8.81
2022-09-22T08:38:12.135Z,9.46
2022-09-22T08:40:09.680Z,10.52
2022-09-22T08:42:10.913Z,11.25
2022-09-22T08:44:12.397Z,11.55
2022-09-22T08:46:13.766Z,11.72
2022-09-22T08:48:15.402Z,11.71
2022-09-22T08:50:17.176Z,11.33
2022-09-22T08:52:19.443Z,11.41
2022-09-22T08:54:20.883Z,11.85
2022-09-22T08:56:22.322Z,12.04
2022-09-22T08:58:23.941Z,12.4
2022-09-22T09:00:25.407Z,12.48
2022-09-22T09:02:26.382Z,12.95
2022-09-22T09:04:28.165Z,12.51
2022-09-22T09:06:29.443Z,12.86
2022-09-22T09:08:31.208Z,12.88
2022-09-22T09:10:32.326Z,13.22
2022-09-22T09:12:33.391Z,13.3
2022-09-22T09:14:34.773Z,13.55
2022-09-22T09:16:37.258Z,13.79
2022-09-22T09:18:37.202Z,13.99
2022-09-22T09:20:38.839Z,14.32
2022-09-22T09:22:43.632Z,14.21
2022-09-22T09:26:43.496Z,14.74
2022-09-22T09:28:44.917Z,14.82
2022-09-22T09:30:45.868Z,15.07
2022-09-22T09:32:47.003Z,15.22
2022-09-22T09:34:50.367Z,15.63
2022-09-22T09:36:49.320Z,15.17
2022-09-22T09:38:50.834Z,14.67
2022-09-22T09:40:51.829Z,14.48
2022-09-22T09:42:53.158Z,14.98
2022-09-22T09:44:54.328Z,15.73
2022-09-22T09:46:55.363Z,16.19
2022-09-22T09:48:56.401Z,15.78
2022-09-22T09:50:58.102Z,16.21
2022-09-22T09:52:59.387Z,16.22
2022-09-22T09:55:00.983Z,15.67
2022-09-22T09:57:02.622Z,15.81
2022-09-22T09:59:04.306Z,16.28
2022-09-22T10:01:05.205Z,15.65
2022-09-22T10:03:07.117Z,15.7
2022-09-22T10:05:07.902Z,15.64
2022-09-22T10:05:51.599Z,15.61
2022-09-22T10:07:52.668Z,16.02
2022-09-22T10:11:55.655Z,15.73
2022-09-22T10:13:56.992Z,15.09
2022-09-22T10:15:57.986Z,15.03
2022-09-22T10:17:58.831Z,15.32
2022-09-22T10:20:00.177Z,15.76
2022-09-22T10:22:01.632Z,16.16
2022-09-22T10:24:03.456Z,16.23
2022-09-22T10:26:04.916Z,16.39
2022-09-22T10:28:06.664Z,16.3
2022-09-22T10:30:07.718Z,16.57
2022-09-22T10:32:09.164Z,16.46
2022-09-22T10:34:10.252Z,15.83
2022-09-22T10:36:11.939Z,16.49
2022-09-22T10:38:12.923Z,16.27
2022-09-22T10:40:13.895Z,16.27
2022-09-22T10:42:15.560Z,16.59
2022-09-22T10:44:38.888Z,16.54
2022-09-22T10:46:18.668Z,16.25
2022-09-22T10:50:21.029Z,16.39
2022-09-22T10:52:22.312Z,15.86
2022-09-22T10:54:23.716Z,16.01
2022-09-22T10:56:24.679Z,16.85
2022-09-22T10:58:25.777Z,16.22
2022-09-22T11:00:26.780Z,16.58
2022-09-22T11:02:28.403Z,16.93
2022-09-22T11:04:30.470Z,16.97
2022-09-22T11:06:31.495Z,16.52
2022-09-22T11:08:32.574Z,16.82
2022-09-22T11:10:34.021Z,16.31
2022-09-22T11:12:35.663Z,16.83
2022-09-22T11:14:37.324Z,17.34
2022-09-22T11:16:39.102Z,16.99
2022-09-22T11:18:40.263Z,16.33
2022-09-22T11:20:41.973Z,16.43
2022-09-22T11:22:43.037Z,16.82
2022-09-22T11:24:44.841Z,17.38
2022-09-22T11:26:45.878Z,17.28
2022-09-22T11:28:46.885Z,17.3
2022-09-22T11:30:48.627Z,17.59
2022-09-22T11:32:50.291Z,17.32
2022-09-22T11:34:51.992Z,17.13
2022-09-22T11:36:53.256Z,16.08
2022-09-22T11:38:54.423Z,16.18
2022-09-22T11:42:59.370Z,16.88
2022-09-22T11:44:58.802Z,17.2
2022-09-22T11:46:59.850Z,16.83
2022-09-22T11:49:00.949Z,17.04
2022-09-22T11:51:02.361Z,16.88
2022-09-22T11:53:03.835Z,16.89
2022-09-22T11:55:04.711Z,16.79
2022-09-22T11:57:05.923Z,17.21
2022-09-22T11:59:07.433Z,17.32
2022-09-22T12:01:13.053Z,17.5
2022-09-22T12:03:10.070Z,17.74
2022-09-22T12:05:11.188Z,17.56
2022-09-22T12:07:12.773Z,17.31
2022-09-22T12:09:13.632Z,16.78
2022-09-22T12:11:14.840Z,16.44
2022-09-22T12:13:16.457Z,16.41
2022-09-22T12:15:18.179Z,16.95
2022-09-22T12:17:20.128Z,16.73
2022-09-22T12:19:20.907Z,16.76
2022-09-22T12:21:22.615Z,16.94
2022-09-22T12:23:24.073Z,17
2022-09-22T12:25:37.684Z,17.07
2022-09-22T12:27:27.466Z,16.99
2022-09-22T12:29:28.791Z,17.07
2022-09-22T12:31:29.893Z,16.85
2022-09-22T12:35:32.624Z,17.53
2022-09-22T12:37:33.813Z,17.6
2022-09-22T12:39:35.130Z,17.46
2022-09-22T12:41:36.253Z,17.06
2022-09-22T12:43:37.484Z,17.25
2022-09-22T12:45:39.211Z,17.53
2022-09-22T12:47:40.270Z,17.84
2022-09-22T12:49:41.053Z,17.05
2022-09-22T12:51:42.267Z,17.03
2022-09-22T12:53:43.912Z,17.51
2022-09-22T12:55:45.370Z,17.58
2022-09-22T12:57:46.718Z,17.57
2022-09-22T12:59:48.001Z,17.33
2022-09-22T13:01:49.458Z,17.42
2022-09-22T13:03:50.635Z,17.44
2022-09-22T13:05:52.091Z,17.38
2022-09-22T13:07:53.085Z,17.25
2022-09-22T13:09:54.856Z,17.65
2022-09-22T13:11:56.305Z,17.85
2022-09-22T13:13:57.214Z,17.8
2022-09-22T13:15:58.414Z,17.3
2022-09-22T13:17:59.602Z,17.56
2022-09-22T13:20:01.078Z,17.07
2022-09-22T13:22:02.564Z,16.87
2022-09-22T13:24:03.747Z,17.35
2022-09-22T13:26:05.279Z,17.44
2022-09-22T13:28:06.781Z,18.04
2022-09-22T13:30:07.904Z,18.14
2022-09-22T13:32:09.471Z,18.46
2022-09-22T13:34:11.204Z,18.12
2022-09-22T13:36:12.064Z,17.8
2022-09-22T13:38:13.149Z,17.81
2022-09-22T13:40:14.715Z,18.03
2022-09-22T13:42:15.789Z,18.02
2022-09-22T13:44:16.843Z,18.13
2022-09-22T13:46:18.223Z,17.63
2022-09-22T13:48:19.515Z,17.84
2022-09-22T13:50:22.343Z,18.12
2022-09-22T13:52:22.857Z,18.41
2022-09-22T13:54:24.638Z,18.42
2022-09-22T13:56:26.109Z,18.07
2022-09-22T13:58:27.675Z,17.84
2022-09-22T14:00:28.847Z,17.92
2022-09-22T14:02:31.987Z,18.4
2022-09-22T14:04:32.083Z,18.23
2022-09-22T14:06:33.808Z,17.75
2022-09-22T14:08:35.647Z,17.79
2022-09-22T14:10:36.686Z,17.71
2022-09-22T14:12:38.377Z,17.77
2022-09-22T14:14:40.148Z,18.22
2022-09-22T14:16:41.069Z,17.94
2022-09-22T14:18:42.459Z,17.88
2022-09-22T14:20:43.710Z,18.03
2022-09-22T14:22:44.567Z,18.58
2022-09-22T14:24:45.871Z,18.66
2022-09-22T14:26:47.078Z,17.91
2022-09-22T14:28:48.200Z,18.32
2022-09-22T14:30:49.088Z,18.62
2022-09-22T14:32:50.834Z,18.36
2022-09-22T14:34:52.612Z,18.22
2022-09-22T14:36:54.096Z,17.85
2022-09-22T14:39:02.938Z,17.65
2022-09-22T14:40:56.739Z,17.87
2022-09-22T14:42:57.704Z,18.11
2022-09-22T14:44:59.099Z,17.81
2022-09-22T14:47:00.178Z,17.73
2022-09-22T14:49:01.157Z,17.75
2022-09-22T14:51:02.233Z,17.79
2022-09-22T14:53:03.948Z,17.58
2022-09-22T14:55:05.654Z,17.57
2022-09-22T14:57:07.067Z,17.6
2022-09-22T14:59:08.738Z,17.61
2022-09-22T15:01:10.435Z,17.91
2022-09-22T15:03:11.409Z,17.76
2022-09-22T15:05:12.816Z,17.5
2022-09-22T15:07:14.398Z,17.62
2022-09-22T15:09:15.906Z,17.53
2022-09-22T15:11:17.236Z,17.69
2022-09-22T15:13:18.484Z,17.61
2022-09-22T15:15:19.729Z,17.61
2022-09-22T15:17:21.037Z,17.73
2022-09-22T15:19:22.537Z,17.53
2022-09-22T15:21:24.320Z,17.76
2022-09-22T15:23:25.629Z,18.11
2022-09-22T15:25:26.434Z,17.83
2022-09-22T15:27:27.484Z,17.81
2022-09-22T15:29:28.672Z,18.33
2022-09-22T15:31:30.297Z,17.63
2022-09-22T15:33:31.470Z,17.66
2022-09-22T15:35:32.874Z,17.66
2022-09-22T15:37:34.370Z,17.54
2022-09-22T15:39:36.202Z,17.26
2022-09-22T15:41:37.921Z,17.2
2022-09-22T15:43:39.551Z,17.14
2022-09-22T16:22:04.796Z,16.45
2022-09-22T16:24:06.349Z,16.37
2022-09-22T16:26:07.842Z,16.35
2022-09-22T16:28:09.350Z,16.33
2022-09-22T16:30:11.119Z,16.28
2022-09-22T16:32:12.395Z,16.13
2022-09-22T16:34:14.172Z,16.09
2022-09-22T16:36:15.644Z,16.03
2022-09-22T16:38:16.652Z,15.87
2022-09-22T16:42:22.939Z,15.8
2022-09-22T16:44:20.681Z,15.76
2022-09-22T16:46:21.981Z,15.63
2022-09-22T16:48:23.055Z,15.53
2022-09-22T16:50:24.628Z,15.41
2022-09-22T16:51:17.445Z,15.38
2022-09-22T16:53:18.668Z,15.15
2022-09-22T16:55:19.964Z,15.04
2022-09-22T16:57:21.203Z,14.89
2022-09-22T16:59:22.504Z,14.73
2022-09-22T17:01:23.925Z,14.35
2022-09-22T17:03:25.353Z,14.18
2022-09-22T17:05:26.512Z,13.82
2022-09-22T17:07:27.894Z,13.78
2022-09-22T17:09:29.194Z,13.72
2022-09-22T17:11:31.029Z,13.53
2022-09-22T17:13:32.749Z,13.54
2022-09-22T17:15:33.701Z,13.43
2022-09-22T17:19:36.104Z,13.14
2022-09-22T17:21:37.657Z,12.94
2022-09-22T17:23:38.793Z,12.79
2022-09-22T17:25:39.712Z,12.68
2022-09-22T17:27:40.719Z,12.52
2022-09-22T17:29:42.035Z,12.32
2022-09-22T17:31:43.662Z,12.24
2022-09-22T17:33:47.871Z,12.13
2022-09-22T17:35:46.841Z,12.01
2022-09-22T17:37:48.610Z,11.89
2022-09-22T17:39:50.245Z,11.85
2022-09-22T17:41:51.483Z,11.82
2022-09-22T17:43:53.354Z,11.64
2022-09-22T17:45:54.751Z,11.53
2022-09-22T17:47:56.437Z,11.54
2022-09-22T17:49:57.472Z,11.51
2022-09-22T17:51:58.548Z,11.44
2022-09-22T17:54:00.351Z,11.35
2022-09-22T17:56:01.798Z,11.26
2022-09-22T17:58:03.435Z,11.23
2022-09-22T18:00:04.446Z,11.07
2022-09-22T18:02:05.688Z,10.88
2022-09-22T18:04:06.665Z,10.82
2022-09-22T18:06:08.403Z,10.75
2022-09-22T18:08:10.145Z,10.66
2022-09-22T18:10:11.409Z,10.5
2022-09-22T18:12:12.415Z,10.31
2022-09-22T18:14:13.906Z,10.07
2022-09-22T18:16:15.857Z,9.81
2022-09-22T18:18:17.134Z,9.82
2022-09-22T18:20:19.026Z,9.72
2022-09-22T18:22:20.316Z,9.66
2022-09-22T18:24:21.830Z,9.62
2022-09-22T18:26:23.323Z,9.49
2022-09-22T18:28:24.762Z,9.42
2022-09-22T18:30:26.152Z,9.3
2022-09-22T18:32:27.866Z,9.23
2022-09-22T18:34:29.039Z,9.37
2022-09-22T18:36:30.679Z,9.45
2022-09-22T18:38:32.198Z,9.37
2022-09-22T18:40:33.339Z,9.24
2022-09-22T18:42:34.457Z,9.23
2022-09-22T18:44:36.237Z,9.21
2022-09-22T18:46:37.721Z,9.37
2022-09-22T18:48:39.097Z,9.43
2022-09-22T18:50:40.102Z,9.39
2022-09-22T18:52:41.376Z,9.47
2022-09-22T18:54:42.421Z,9.67
2022-09-22T18:56:44.156Z,9.61
2022-09-22T18:58:45.737Z,9.49
2022-09-22T19:00:46.796Z,9.54
2022-09-22T19:02:48.924Z,9.47
2022-09-22T19:04:50.581Z,9.4
2022-09-22T19:06:51.771Z,9.25
2022-09-22T19:08:52.803Z,9.17
2022-09-22T19:10:54.360Z,9.1
2022-09-22T19:12:56.044Z,8.98
2022-09-22T19:14:57.970Z,8.88
2022-09-22T19:16:58.941Z,8.82
2022-09-22T19:19:00.085Z,8.82
2022-09-22T19:21:01.492Z,8.71
2022-09-22T19:23:03.372Z,8.65
2022-09-22T19:25:04.813Z,8.59
2022-09-22T19:27:05.925Z,8.58
2022-09-22T19:29:06.880Z,8.57
2022-09-22T19:31:08.281Z,8.5
2022-09-22T19:33:09.851Z,8.54
2022-09-22T19:35:11.255Z,8.45
2022-09-22T19:37:12.764Z,8.47
2022-09-22T19:39:13.856Z,8.38
2022-09-22T19:41:15.789Z,8.35
2022-09-22T19:43:16.946Z,8.31
2022-09-22T19:45:18.854Z,8.33
2022-09-22T19:47:20.707Z,8.32
2022-09-22T19:49:21.761Z,8.2
2022-09-22T19:51:22.896Z,8.18
2022-09-22T19:53:24.600Z,8.07
2022-09-22T19:55:26.399Z,8.08
2022-09-22T19:57:27.465Z,8.08
2022-09-22T19:59:28.764Z,8.07
2022-09-22T20:01:30.143Z,7.92
2022-09-22T20:03:31.152Z,7.89
2022-09-22T20:05:32.920Z,7.84
2022-09-22T20:07:33.901Z,7.74
2022-09-22T20:09:35.817Z,7.79
2022-09-22T20:11:37.640Z,7.76
2022-09-22T20:15:41.279Z,7.8
2022-09-22T20:17:42.412Z,7.8
2022-09-22T20:19:44.057Z,7.76
2022-09-22T20:21:45.943Z,7.72
2022-09-22T20:23:47.072Z,7.64
2022-09-22T20:25:48.884Z,7.55
2022-09-22T20:27:50.715Z,7.41
2022-09-22T20:29:56.400Z,7.49
2022-09-22T20:31:53.518Z,7.49
2022-09-22T20:33:54.874Z,7.58
2022-09-22T20:35:56.344Z,7.52
2022-09-22T20:37:57.637Z,7.47
2022-09-22T20:39:59.084Z,7.4
2022-09-22T20:42:00.640Z,7.27
2022-09-22T20:44:01.865Z,7.25
2022-09-22T20:46:03.290Z,7.22
2022-09-22T20:48:05.033Z,7.19
2022-09-22T20:50:06.533Z,7.16
2022-09-22T20:52:07.872Z,7.14
2022-09-22T20:54:09.803Z,7.1
2022-09-22T20:56:11.262Z,7.06
2022-09-22T20:58:12.705Z,6.99
2022-09-22T21:00:14.037Z,6.87
2022-09-22T21:02:16.074Z,6.8
2022-09-22T21:04:17.364Z,6.78
2022-09-22T21:06:19.231Z,6.76
2022-09-22T21:08:21.141Z,6.78
2022-09-22T21:10:22.477Z,6.78
2022-09-22T21:12:27.408Z,6.75
2022-09-22T21:14:25.035Z,6.67
2022-09-22T21:16:26.516Z,6.61
2022-09-22T21:18:28.484Z,6.55
2022-09-22T21:20:29.504Z,6.61
2022-09-22T21:22:30.800Z,6.58
2022-09-22T21:24:31.908Z,6.51
2022-09-22T21:26:33.075Z,6.46
2022-09-22T21:28:34.088Z,6.44
2022-09-22T21:30:35.957Z,6.43
2022-09-22T21:32:37.799Z,6.4
2022-09-22T21:34:39.551Z,6.35
2022-09-22T21:36:41.190Z,6.34
2022-09-22T21:40:44.353Z,6.06
2022-09-22T21:42:46.001Z,6.06
2022-09-22T21:44:47.693Z,6.02
2022-09-22T21:46:48.865Z,5.99
2022-09-22T21:48:50.792Z,5.89
2022-09-22T21:50:52.564Z,5.96
2022-09-22T21:52:54.513Z,5.93
2022-09-22T21:54:56.215Z,5.96
2022-09-22T21:56:57.863Z,5.96
2022-09-22T21:58:59.417Z,5.95
2022-09-22T22:01:00.709Z,5.99
2022-09-22T22:03:01.758Z,5.92
2022-09-22T22:05:03.021Z,5.84
2022-09-22T22:07:04.543Z,5.78
2022-09-22T22:09:05.785Z,5.68
2022-09-22T22:11:07.657Z,5.54
2022-09-22T22:13:09.146Z,5.62
2022-09-22T22:15:10.738Z,5.7
2022-09-22T22:17:11.778Z,5.61
2022-09-22T22:19:13.484Z,5.55
2022-09-22T22:23:16.283Z,5.31
2022-09-22T22:25:17.632Z,5.45
2022-09-22T22:27:18.967Z,5.54
2022-09-22T22:29:20.917Z,5.47
2022-09-22T22:31:22.041Z,5.37
2022-09-22T22:33:23.162Z,5.37
2022-09-22T22:35:24.763Z,5.28
2022-09-22T22:37:25.943Z,5.23
2022-09-22T22:39:27.127Z,5.21
2022-09-22T22:41:28.291Z,5.21
2022-09-22T22:43:29.563Z,5.2
2022-09-22T22:45:31.434Z,5.12
2022-09-22T22:47:32.987Z,5.14
2022-09-22T22:49:34.299Z,5.12
2022-09-22T22:51:35.255Z,5
2022-09-22T22:53:36.731Z,4.94
2022-09-22T22:55:38.323Z,4.85
2022-09-22T22:57:40.084Z,4.8
2022-09-22T22:59:41.898Z,4.87
2022-09-22T23:01:44.013Z,4.99
2022-09-22T23:03:45.586Z,5.02
2022-09-22T23:05:47.272Z,4.95
2022-09-22T23:07:48.214Z,4.9
2022-09-22T23:09:50.082Z,4.86
2022-09-22T23:11:51.280Z,4.94
2022-09-22T23:13:52.979Z,4.9
2022-09-22T23:15:54.238Z,4.82
2022-09-22T23:17:55.432Z,4.79
2022-09-22T23:19:56.701Z,4.75
2022-09-22T23:21:58.270Z,4.71
2022-09-22T23:23:59.656Z,4.82
2022-09-22T23:26:01.026Z,4.81
2022-09-22T23:28:02.436Z,4.75
2022-09-22T23:30:05.312Z,4.87
2022-09-22T23:32:06.209Z,4.83
2022-09-22T23:34:08.108Z,4.88
2022-09-22T23:36:09.431Z,4.88
2022-09-22T23:38:54.988Z,4.82
2022-09-22T23:40:56.392Z,4.79
2022-09-22T23:42:58.148Z,4.7
2022-09-22T23:44:59.399Z,4.78
2022-09-22T23:47:00.776Z,4.68
2022-09-22T23:49:02.054Z,4.56
2022-09-22T23:51:03.156Z,4.49
2022-09-22T23:53:04.297Z,4.47
2022-09-22T23:55:06.259Z,4.4
2022-09-22T23:57:07.606Z,4.49
2022-09-22T23:59:08.796Z,4.53
